createdAt,value
2018-03-06T00:01:21.374Z,122.37
2018-03-06T00:05:24.718Z,104.37
2018-03-06T00:09:28.055Z,73.77
2018-03-06T00:13:32.143Z,98.13
2018-03-06T00:17:36.246Z,99.53
2018-03-06T00:21:39.598Z,106.13
2018-03-06T00:25:42.919Z,89.20
2018-03-06T00:29:46.260Z,81.47
2018-03-06T00:33:49.594Z,67.83
2018-03-06T00:37:52.918Z,47.73
2018-03-06T00:41:57.023Z,52.20
2018-03-06T00:46:00.366Z,55.57
2018-03-06T00:50:03.723Z,50.67
2018-03-06T00:54:07.046Z,71.43
2018-03-06T00:58:11.157Z,68.83
2018-03-06T01:02:14.473Z,81.73
2018-03-06T01:06:18.589Z,60.57
2018-03-06T01:10:22.676Z,71.87
2018-03-06T01:14:26.060Z,88.13
2018-03-06T01:18:30.114Z,65.30
2018-03-06T01:22:33.459Z,85.80
2018-03-06T01:26:36.808Z,100.13
2018-03-06T01:30:40.152Z,98.97
2018-03-06T01:34:44.247Z,148.00
2018-03-06T01:38:47.599Z,73.80
2018-03-06T01:42:50.918Z,61.60
2018-03-06T01:46:54.273Z,43.70
2018-03-06T01:50:57.595Z,48.13
2018-03-06T01:55:01.695Z,62.83
2018-03-06T01:59:05.039Z,71.10
2018-03-06T02:03:08.391Z,44.13
2018-03-06T02:07:11.730Z,54.87
2018-03-06T02:11:15.081Z,86.17
2018-03-06T02:15:18.417Z,53.13
2018-03-06T02:19:22.512Z,69.70
2018-03-06T02:23:25.863Z,96.07
2018-03-06T02:27:29.200Z,96.73
2018-03-06T02:31:32.542Z,81.57
2018-03-06T02:35:35.878Z,81.00
2018-03-06T02:39:39.219Z,86.47
2018-03-06T02:43:43.430Z,79.17
2018-03-06T02:47:47.498Z,93.20
2018-03-06T02:51:51.614Z,123.63
2018-03-06T02:55:55.867Z,144.83
2018-03-06T02:59:59.305Z,122.37
2018-03-06T03:04:03.640Z,70.37
2018-03-06T03:08:07.059Z,52.30
2018-03-06T03:12:11.246Z,69.90
2018-03-06T03:16:14.625Z,67.63
2018-03-06T03:20:18.125Z,56.77
2018-03-06T03:24:21.485Z,60.80
2018-03-06T03:28:24.892Z,63.37
2018-03-06T03:32:28.321Z,52.23
2018-03-06T03:36:31.692Z,50.40
2018-03-06T03:40:35.069Z,51.07
2018-03-06T03:44:38.443Z,43.70
2018-03-06T03:48:42.603Z,46.37
2018-03-06T03:52:46.030Z,41.23
2018-03-06T04:06:02.948Z,55.77
2018-03-06T04:14:59.503Z,48.27
2018-03-06T04:19:03.646Z,45.77
2018-03-06T04:23:10.239Z,49.43
2018-03-06T04:27:13.570Z,50.73
2018-03-06T04:31:16.906Z,63.07
2018-03-06T04:40:06.501Z,55.17
2018-03-06T04:44:09.832Z,68.70
2018-03-06T04:48:13.175Z,60.47
2018-03-06T04:52:16.499Z,67.50
2018-03-06T04:56:19.838Z,61.90
2018-03-06T05:00:23.179Z,68.03
2018-03-06T05:04:26.518Z,66.33
2018-03-06T05:08:29.842Z,58.97
2018-03-06T05:12:33.183Z,58.43
2018-03-06T05:26:08.632Z,61.70
2018-03-06T05:30:12.065Z,53.23
2018-03-06T05:34:15.503Z,61.27
2018-03-06T05:38:19.275Z,56.67
2018-03-06T05:42:22.732Z,70.67
2018-03-06T05:46:26.147Z,69.53
2018-03-06T05:50:29.556Z,69.60
2018-03-06T05:54:33.028Z,75.83
2018-03-06T05:58:37.213Z,77.13
2018-03-06T06:16:54.102Z,74.93
2018-03-06T06:20:57.572Z,75.83
2018-03-06T06:25:01.027Z,66.80
2018-03-06T06:29:04.541Z,59.13
2018-03-06T06:33:07.963Z,56.60
2018-03-06T06:37:11.394Z,59.00
2018-03-06T06:41:14.760Z,51.30
2018-03-06T06:45:18.167Z,68.20
2018-03-06T06:49:21.548Z,55.77
2018-03-06T06:53:24.903Z,57.17
2018-03-06T06:57:28.252Z,52.33
2018-03-06T08:31:24.515Z,56.90
2018-03-06T08:35:33.884Z,56.17
2018-03-06T08:39:46.918Z,51.83
2018-03-06T08:44:23.520Z,55.13
2018-03-06T08:53:25.240Z,49.17
2018-03-06T09:15:55.107Z,57.40
2018-03-06T09:19:58.431Z,51.60
2018-03-06T09:24:01.763Z,58.17
2018-03-06T09:28:05.067Z,57.50
2018-03-06T09:32:08.386Z,54.33
2018-03-06T09:36:11.705Z,57.27
2018-03-06T09:40:15.031Z,52.60
2018-03-06T09:44:18.354Z,59.70
2018-03-06T09:48:21.654Z,55.63
2018-03-06T09:52:24.991Z,50.77
2018-03-06T09:56:28.310Z,54.43
2018-03-06T10:00:31.611Z,51.57
2018-03-06T10:04:34.930Z,56.57
2018-03-06T10:08:38.255Z,59.87
2018-03-06T10:12:42.314Z,56.63
2018-03-06T10:16:45.621Z,56.63
2018-03-06T10:20:48.937Z,58.27
2018-03-06T10:24:52.237Z,62.63
2018-03-06T10:28:55.559Z,66.00
2018-03-06T10:32:58.882Z,67.97
2018-03-06T10:37:02.950Z,68.30
2018-03-06T10:41:06.274Z,72.03
2018-03-06T10:45:09.572Z,80.87
2018-03-06T10:49:12.890Z,86.47
2018-03-06T10:53:16.237Z,88.87
2018-03-06T10:57:19.528Z,77.67
2018-03-06T11:01:25.522Z,70.57
2018-03-06T11:05:28.840Z,71.30
2018-03-06T11:09:32.150Z,68.93
2018-03-06T11:13:35.467Z,67.03
2018-03-06T11:17:38.791Z,67.63
2018-03-06T11:21:42.879Z,73.30
2018-03-06T11:25:46.259Z,65.90
2018-03-06T11:29:49.877Z,72.33
2018-03-06T11:33:53.166Z,72.23
2018-03-06T11:37:56.498Z,66.67
2018-03-06T11:41:59.810Z,73.83
2018-03-06T11:46:03.140Z,68.67
2018-03-06T11:50:07.231Z,73.17
2018-03-06T11:54:10.558Z,75.87
2018-03-06T11:58:13.873Z,71.07
2018-03-06T12:02:17.972Z,71.50
2018-03-06T12:06:21.296Z,69.20
2018-03-06T12:10:25.394Z,70.23
2018-03-06T12:14:28.689Z,65.57
2018-03-06T12:18:32.003Z,72.90
2018-03-06T12:22:35.321Z,70.73
2018-03-06T12:26:39.378Z,69.03
2018-03-06T12:30:42.697Z,74.10
2018-03-06T12:34:46.011Z,73.93
2018-03-06T12:38:49.345Z,77.40
2018-03-06T12:42:52.674Z,80.00
2018-03-06T12:46:55.981Z,72.60
2018-03-06T12:50:59.298Z,78.70
2018-03-06T12:55:02.615Z,77.60
2018-03-06T12:59:05.951Z,77.23
2018-03-06T13:03:09.255Z,71.43
2018-03-06T13:07:12.589Z,73.37
2018-03-06T13:11:15.895Z,77.53
2018-03-06T13:15:19.210Z,73.87
2018-03-06T13:19:22.507Z,81.40
2018-03-06T13:23:25.842Z,78.97
2018-03-06T13:27:29.154Z,80.40
2018-03-06T13:31:32.480Z,79.57
2018-03-06T13:35:35.790Z,82.10
2018-03-06T13:39:39.114Z,78.67
2018-03-06T13:43:42.434Z,81.07
2018-03-06T13:47:45.732Z,84.40
2018-03-06T13:51:49.056Z,81.13
2018-03-06T13:55:52.377Z,79.27
2018-03-06T13:59:55.694Z,80.60
2018-03-06T14:03:59.780Z,79.40
2018-03-06T14:08:03.094Z,82.43
2018-03-06T14:12:06.427Z,83.77
2018-03-06T14:16:10.486Z,82.13
2018-03-06T14:20:13.803Z,82.67
2018-03-06T14:24:17.098Z,82.90
2018-03-06T14:28:20.423Z,80.13
2018-03-06T14:32:23.738Z,81.67
2018-03-06T14:36:27.074Z,83.67
2018-03-06T14:40:31.135Z,83.33
2018-03-06T14:44:34.451Z,78.77
2018-03-06T14:48:37.782Z,83.07
2018-03-06T14:52:41.847Z,81.20
2018-03-06T14:56:45.809Z,78.93
2018-03-06T15:00:49.151Z,83.10
2018-03-06T15:04:52.470Z,82.03
2018-03-06T15:08:55.795Z,85.00
2018-03-06T15:12:59.141Z,82.57
2018-03-06T15:17:02.470Z,80.03
2018-03-06T15:21:05.806Z,85.50
2018-03-06T15:25:09.118Z,83.03
2018-03-06T15:29:12.451Z,85.73
2018-03-06T15:33:15.794Z,84.87
2018-03-06T15:37:19.103Z,87.77
2018-03-06T15:41:22.475Z,79.70
2018-03-06T15:45:25.886Z,91.67
2018-03-06T15:49:29.987Z,89.17
2018-03-06T15:53:33.353Z,89.43
2018-03-06T15:57:36.732Z,86.93
2018-03-06T16:01:40.100Z,90.27
2018-03-06T16:05:43.450Z,95.27
2018-03-06T16:09:46.840Z,87.67
2018-03-06T16:13:50.204Z,96.50
2018-03-06T16:17:53.652Z,98.63
2018-03-06T16:21:57.162Z,97.90
2018-03-06T16:26:00.682Z,97.47
2018-03-06T16:30:04.125Z,102.20
2018-03-06T16:34:07.496Z,104.53
2018-03-06T16:38:10.875Z,100.37
2018-03-06T16:42:14.253Z,107.73
2018-03-06T16:46:17.613Z,104.13
2018-03-06T16:50:20.985Z,104.07
2018-03-06T16:54:24.379Z,104.33
2018-03-06T16:58:27.758Z,105.07
2018-03-06T17:02:31.146Z,99.00
2018-03-06T17:06:34.515Z,98.70
2018-03-06T17:10:37.897Z,112.07
2018-03-06T17:14:41.280Z,114.67
2018-03-06T17:18:44.663Z,117.80
2018-03-06T17:22:48.073Z,112.60
2018-03-06T17:26:51.442Z,114.50
2018-03-06T17:30:54.882Z,113.20
2018-03-06T17:34:58.296Z,114.27
